sensor_id;sensor_type;location;lat;lon;timestamp;pressure;altitude;pressure_sealevel;temperature;humidity
6829;BME280;17930;48.592;8.868;2023-02-13T00:00:24;98644.88;;;0.36;100.00
6829;BME280;17930;48.592;8.868;2023-02-13T00:03:01;98644.25;;;0.34;100.00
6829;BME280;17930;48.592;8.868;2023-02-13T00:05:35;98648.09;;;0.38;100.00
6829;BME280;17930;48.592;8.868;2023-02-13T00:08:04;98636.25;;;0.37;100.00
6829;BME280;17930;48.592;8.868;2023-02-13T00:10:31;98644.56;;;0.39;100.00
6829;BME280;17930;48.592;8.868;2023-02-13T00:12:58;98645.53;;;0.38;100.00
6829;BME280;17930;48.592;8.868;2023-02-13T00:15:25;98646.19;;;0.40;100.00
6829;BME280;17930;48.592;8.868;2023-02-13T00:17:51;98642.16;;;0.38;100.00
6829;BME280;17930;48.592;8.868;2023-02-13T00:20:20;98636.72;;;0.25;100.00
6829;BME280;17930;48.592;8.868;2023-02-13T00:22:50;98642.50;;;0.19;100.00
6829;BME280;17930;48.592;8.868;2023-02-13T00:25:18;98636.41;;;0.28;100.00
6829;BME280;17930;48.592;8.868;2023-02-13T00:27:45;98641.06;;;0.24;100.00
6829;BME280;17930;48.592;8.868;2023-02-13T00:30:13;98645.69;;;0.29;100.00
6829;BME280;17930;48.592;8.868;2023-02-13T00:32:39;98640.72;;;0.27;100.00
6829;BME280;17930;48.592;8.868;2023-02-13T00:35:06;98634.97;;;0.17;100.00
6829;BME280;17930;48.592;8.868;2023-02-13T00:37:35;98635.78;;;0.10;100.00
6829;BME280;17930;48.592;8.868;2023-02-13T00:40:05;98638.16;;;-0.12;100.00
6829;BME280;17930;48.592;8.868;2023-02-13T00:42:33;98635.25;;;-0.17;100.00
6829;BME280;17930;48.592;8.868;2023-02-13T00:45:00;98635.56;;;-0.20;100.00
6829;BME280;17930;48.592;8.868;2023-02-13T00:47:26;98642.94;;;-0.25;100.00
6829;BME280;17930;48.592;8.868;2023-02-13T00:49:53;98643.72;;;-0.25;100.00
6829;BME280;17930;48.592;8.868;2023-02-13T00:52:20;98644.38;;;-0.23;100.00
6829;BME280;17930;48.592;8.868;2023-02-13T00:54:48;98646.13;;;-0.23;100.00
6829;BME280;17930;48.592;8.868;2023-02-13T00:57:14;98639.41;;;-0.24;100.00
6829;BME280;17930;48.592;8.868;2023-02-13T00:59:41;98643.09;;;-0.19;100.00
6829;BME280;17930;48.592;8.868;2023-02-13T01:02:10;98634.47;;;-0.18;100.00
6829;BME280;17930;48.592;8.868;2023-02-13T01:04:37;98636.22;;;-0.10;100.00
6829;BME280;17930;48.592;8.868;2023-02-13T01:07:07;98636.53;;;-0.13;100.00
6829;BME280;17930;48.592;8.868;2023-02-13T01:09:33;98637.84;;;-0.09;100.00
6829;BME280;17930;48.592;8.868;2023-02-13T01:12:02;98640.38;;;-0.02;100.00
6829;BME280;17930;48.592;8.868;2023-02-13T01:14:28;98637.22;;;0.04;100.00
6829;BME280;17930;48.592;8.868;2023-02-13T01:16:55;98637.50;;;0.09;100.00
6829;BME280;17930;48.592;8.868;2023-02-13T01:19:22;98638.16;;;0.03;100.00
6829;BME280;17930;48.592;8.868;2023-02-13T01:21:49;98633.03;;;0.03;100.00
6829;BME280;17930;48.592;8.868;2023-02-13T01:24:16;98627.59;;;0.06;100.00
6829;BME280;17930;48.592;8.868;2023-02-13T01:26:42;98624.06;;;-0.01;100.00
6829;BME280;17930;48.592;8.868;2023-02-13T01:29:12;98628.22;;;-0.07;100.00
6829;BME280;17930;48.592;8.868;2023-02-13T01:31:39;98622.28;;;-0.16;100.00
6829;BME280;17930;48.592;8.868;2023-02-13T01:34:05;98618.28;;;-0.18;100.00
6829;BME280;17930;48.592;8.868;2023-02-13T01:36:32;98623.22;;;-0.25;100.00
6829;BME280;17930;48.592;8.868;2023-02-13T01:38:59;98612.66;;;-0.22;100.00
6829;BME280;17930;48.592;8.868;2023-02-13T01:41:26;98612.81;;;-0.31;100.00
6829;BME280;17930;48.592;8.868;2023-02-13T01:43:55;98618.59;;;-0.29;100.00
6829;BME280;17930;48.592;8.868;2023-02-13T01:46:26;98614.59;;;-0.24;100.00
6829;BME280;17930;48.592;8.868;2023-02-13T01:48:58;98618.91;;;-0.16;100.00
6829;BME280;17930;48.592;8.868;2023-02-13T01:51:30;98612.81;;;-0.23;100.00
6829;BME280;17930;48.592;8.868;2023-02-13T01:54:01;98623.03;;;-0.31;100.00
6829;BME280;17930;48.592;8.868;2023-02-13T01:56:33;98614.72;;;-0.33;100.00
6829;BME280;17930;48.592;8.868;2023-02-13T01:59:06;98616.50;;;-0.34;100.00
6829;BME280;17930;48.592;8.868;2023-02-13T02:01:35;98612.81;;;-0.31;100.00
6829;BME280;17930;48.592;8.868;2023-02-13T02:04:07;98610.91;;;-0.29;100.00
6829;BME280;17930;48.592;8.868;2023-02-13T02:06:38;98622.53;;;-0.43;100.00
6829;BME280;17930;48.592;8.868;2023-02-13T02:09:09;98614.41;;;-0.38;100.00
6829;BME280;17930;48.592;8.868;2023-02-13T02:11:43;98615.69;;;-0.34;100.00
6829;BME280;17930;48.592;8.868;2023-02-13T02:14:11;98618.09;;;-0.33;100.00
6829;BME280;17930;48.592;8.868;2023-02-13T02:16:39;98613.63;;;-0.31;100.00
6829;BME280;17930;48.592;8.868;2023-02-13T02:19:13;98606.41;;;-0.35;100.00
6829;BME280;17930;48.592;8.868;2023-02-13T02:25:02;98604.34;;;-0.24;100.00
6829;BME280;17930;48.592;8.868;2023-02-13T02:33:57;98604.19;;;-0.22;100.00
6829;BME280;17930;48.592;8.868;2023-02-13T02:36:38;98604.66;;;-0.11;100.00
6829;BME280;17930;48.592;8.868;2023-02-13T02:39:15;98607.38;;;-0.20;100.00
6829;BME280;17930;48.592;8.868;2023-02-13T02:41:58;98609.16;;;-0.21;100.00
6829;BME280;17930;48.592;8.868;2023-02-13T02:44:32;98605.47;;;-0.18;100.00
6829;BME280;17930;48.592;8.868;2023-02-13T02:47:08;98612.53;;;-0.12;100.00
6829;BME280;17930;48.592;8.868;2023-02-13T02:50:07;98614.47;;;0.01;100.00
6829;BME280;17930;48.592;8.868;2023-02-13T02:52:41;98614.09;;;-0.11;100.00
6829;BME280;17930;48.592;8.868;2023-02-13T02:55:18;98617.31;;;-0.25;100.00
6829;BME280;17930;48.592;8.868;2023-02-13T02:57:54;98627.38;;;-0.32;100.00
6829;BME280;17930;48.592;8.868;2023-02-13T03:00:43;98618.75;;;-0.15;100.00
6829;BME280;17930;48.592;8.868;2023-02-13T03:03:29;98621.63;;;-0.10;100.00
6829;BME280;17930;48.592;8.868;2023-02-13T03:06:17;98620.53;;;-0.15;100.00
6829;BME280;17930;48.592;8.868;2023-02-13T03:08:53;98610.13;;;-0.14;100.00
6829;BME280;17930;48.592;8.868;2023-02-13T03:11:53;98611.88;;;-0.22;100.00
6829;BME280;17930;48.592;8.868;2023-02-13T03:14:38;98613.44;;;-0.37;100.00
6829;BME280;17930;48.592;8.868;2023-02-13T03:17:07;98617.41;;;-0.51;100.00
6829;BME280;17930;48.592;8.868;2023-02-13T03:20:03;98620.91;;;-0.59;100.00
6829;BME280;17930;48.592;8.868;2023-02-13T03:22:59;98616.25;;;-0.64;100.00
6829;BME280;17930;48.592;8.868;2023-02-13T03:25:29;98618.13;;;-0.82;100.00
6829;BME280;17930;48.592;8.868;2023-02-13T03:28:05;98619.13;;;-0.75;100.00
6829;BME280;17930;48.592;8.868;2023-02-13T03:30:58;98615.50;;;-0.98;100.00
6829;BME280;17930;48.592;8.868;2023-02-13T03:33:43;98614.06;;;-0.92;100.00
6829;BME280;17930;48.592;8.868;2023-02-13T03:36:21;98615.22;;;-0.87;100.00
6829;BME280;17930;48.592;8.868;2023-02-13T03:39:18;98620.06;;;-0.76;100.00
6829;BME280;17930;48.592;8.868;2023-02-13T03:41:49;98614.75;;;-0.82;100.00
6829;BME280;17930;48.592;8.868;2023-02-13T03:44:25;98621.31;;;-0.80;100.00
6829;BME280;17930;48.592;8.868;2023-02-13T03:46:57;98618.13;;;-0.82;100.00
6829;BME280;17930;48.592;8.868;2023-02-13T03:49:28;98624.53;;;-0.78;100.00
6829;BME280;17930;48.592;8.868;2023-02-13T03:52:31;98625.94;;;-0.91;100.00
6829;BME280;17930;48.592;8.868;2023-02-13T03:55:03;98628.94;;;-0.96;100.00
6829;BME280;17930;48.592;8.868;2023-02-13T03:57:52;98630.78;;;-1.13;100.00
6829;BME280;17930;48.592;8.868;2023-02-13T04:00:42;98634.44;;;-1.16;100.00
6829;BME280;17930;48.592;8.868;2023-02-13T04:03:12;98637.97;;;-1.17;100.00
6829;BME280;17930;48.592;8.868;2023-02-13T04:05:43;98646.53;;;-1.26;100.00
6829;BME280;17930;48.592;8.868;2023-02-13T04:08:12;98654.31;;;-1.35;100.00
6829;BME280;17930;48.592;8.868;2023-02-13T04:10:44;98650.41;;;-1.47;100.00
6829;BME280;17930;48.592;8.868;2023-02-13T04:13:17;98658.97;;;-1.56;100.00
6829;BME280;17930;48.592;8.868;2023-02-13T04:15:49;98660.53;;;-1.63;100.00
6829;BME280;17930;48.592;8.868;2023-02-13T04:18:20;98666.31;;;-1.61;100.00
6829;BME280;17930;48.592;8.868;2023-02-13T04:20:48;98663.72;;;-1.18;100.00
6829;BME280;17930;48.592;8.868;2023-02-13T04:23:15;98664.75;;;-1.29;100.00
6829;BME280;17930;48.592;8.868;2023-02-13T04:25:45;98669.00;;;-1.37;100.00
6829;BME280;17930;48.592;8.868;2023-02-13T04:28:12;98667.75;;;-1.33;100.00
6829;BME280;17930;48.592;8.868;2023-02-13T04:30:39;98664.72;;;-1.03;100.00
6829;BME280;17930;48.592;8.868;2023-02-13T04:33:06;98665.09;;;-0.99;100.00
6829;BME280;17930;48.592;8.868;2023-02-13T04:35:32;98667.03;;;-0.93;100.00
6829;BME280;17930;48.592;8.868;2023-02-13T04:37:59;98662.84;;;-1.02;100.00
6829;BME280;17930;48.592;8.868;2023-02-13T04:40:26;98668.28;;;-1.04;100.00
6829;BME280;17930;48.592;8.868;2023-02-13T04:42:55;98658.97;;;-1.05;100.00
6829;BME280;17930;48.592;8.868;2023-02-13T04:45:25;98666.41;;;-0.95;100.00
6829;BME280;17930;48.592;8.868;2023-02-13T04:47:53;98665.41;;;-0.94;100.00
6829;BME280;17930;48.592;8.868;2023-02-13T04:50:21;98660.75;;;-0.98;100.00
6829;BME280;17930;48.592;8.868;2023-02-13T04:52:52;98663.28;;;-0.73;100.00
6829;BME280;17930;48.592;8.868;2023-02-13T04:55:23;98664.97;;;-0.48;100.00
6829;BME280;17930;48.592;8.868;2023-02-13T04:57:51;98652.53;;;-0.35;100.00
6829;BME280;17930;48.592;8.868;2023-02-13T05:00:20;98651.81;;;-0.53;100.00
6829;BME280;17930;48.592;8.868;2023-02-13T05:02:47;98657.28;;;-0.48;100.00
6829;BME280;17930;48.592;8.868;2023-02-13T05:05:14;98662.34;;;-0.64;100.00
6829;BME280;17930;48.592;8.868;2023-02-13T05:07:41;98659.09;;;-0.82;100.00
6829;BME280;17930;48.592;8.868;2023-02-13T05:10:14;98664.47;;;-0.93;100.00
6829;BME280;17930;48.592;8.868;2023-02-13T05:12:59;98668.97;;;-0.95;100.00
6829;BME280;17930;48.592;8.868;2023-02-13T05:15:28;98657.41;;;-0.99;100.00
6829;BME280;17930;48.592;8.868;2023-02-13T05:17:54;98672.47;;;-0.96;100.00
6829;BME280;17930;48.592;8.868;2023-02-13T05:20:21;98665.72;;;-0.97;100.00
6829;BME280;17930;48.592;8.868;2023-02-13T05:22:49;98671.78;;;-1.05;100.00
6829;BME280;17930;48.592;8.868;2023-02-13T05:25:49;98670.13;;;-1.14;100.00
6829;BME280;17930;48.592;8.868;2023-02-13T05:28:16;98668.53;;;-1.15;100.00
6829;BME280;17930;48.592;8.868;2023-02-13T05:31:01;98666.75;;;-1.15;100.00
6829;BME280;17930;48.592;8.868;2023-02-13T05:33:28;98655.19;;;-0.94;100.00
6829;BME280;17930;48.592;8.868;2023-02-13T05:35:54;98664.47;;;-0.93;100.00
6829;BME280;17930;48.592;8.868;2023-02-13T05:38:21;98665.16;;;-0.83;100.00
6829;BME280;17930;48.592;8.868;2023-02-13T05:40:48;98662.19;;;-1.03;100.00
6829;BME280;17930;48.592;8.868;2023-02-13T05:43:14;98658.34;;;-1.00;100.00
6829;BME280;17930;48.592;8.868;2023-02-13T05:45:41;98657.22;;;-1.05;100.00
6829;BME280;17930;48.592;8.868;2023-02-13T05:48:09;98666.97;;;-1.08;100.00
6829;BME280;17930;48.592;8.868;2023-02-13T05:50:36;98664.97;;;-1.22;100.00
6829;BME280;17930;48.592;8.868;2023-02-13T05:53:02;98663.72;;;-1.10;100.00
6829;BME280;17930;48.592;8.868;2023-02-13T05:55:29;98666.88;;;-1.24;100.00
6829;BME280;17930;48.592;8.868;2023-02-13T05:57:56;98667.06;;;-1.18;100.00
6829;BME280;17930;48.592;8.868;2023-02-13T06:00:24;98668.47;;;-1.23;100.00
6829;BME280;17930;48.592;8.868;2023-02-13T06:02:50;98675.41;;;-1.41;100.00
6829;BME280;17930;48.592;8.868;2023-02-13T06:05:18;98672.56;;;-1.30;100.00
6829;BME280;17930;48.592;8.868;2023-02-13T06:07:45;98673.41;;;-1.30;100.00
6829;BME280;17930;48.592;8.868;2023-02-13T06:10:12;98672.06;;;-1.08;100.00
6829;BME280;17930;48.592;8.868;2023-02-13T06:12:38;98671.38;;;-1.18;100.00
6829;BME280;17930;48.592;8.868;2023-02-13T06:15:06;98669.81;;;-1.11;100.00
6829;BME280;17930;48.592;8.868;2023-02-13T06:17:33;98675.94;;;-1.04;100.00
6829;BME280;17930;48.592;8.868;2023-02-13T06:19:59;98674.88;;;-1.19;100.00
6829;BME280;17930;48.592;8.868;2023-02-13T06:22:27;98679.59;;;-1.32;100.00
6829;BME280;17930;48.592;8.868;2023-02-13T06:24:54;98677.09;;;-1.24;100.00
6829;BME280;17930;48.592;8.868;2023-02-13T06:27:21;98679.59;;;-1.32;100.00
6829;BME280;17930;48.592;8.868;2023-02-13T06:29:47;98687.34;;;-1.24;100.00
6829;BME280;17930;48.592;8.868;2023-02-13T06:32:14;98677.09;;;-1.24;100.00
6829;BME280;17930;48.592;8.868;2023-02-13T06:34:41;98686.59;;;-1.34;100.00
6829;BME280;17930;48.592;8.868;2023-02-13T06:37:08;98684.41;;;-1.29;100.00
6829;BME280;17930;48.592;8.868;2023-02-13T06:39:36;98688.53;;;-1.36;100.00
6829;BME280;17930;48.592;8.868;2023-02-13T06:42:03;98691.31;;;-1.47;100.00
6829;BME280;17930;48.592;8.868;2023-02-13T06:44:29;98689.31;;;-1.61;100.00
6829;BME280;17930;48.592;8.868;2023-02-13T06:46:56;98691.19;;;-1.63;100.00
6829;BME280;17930;48.592;8.868;2023-02-13T06:49:23;98691.06;;;-1.79;100.00
6829;BME280;17930;48.592;8.868;2023-02-13T06:51:49;98696.28;;;-1.71;100.00
6829;BME280;17930;48.592;8.868;2023-02-13T06:54:16;98696.19;;;-1.79;100.00
6829;BME280;17930;48.592;8.868;2023-02-13T06:56:44;98687.28;;;-1.75;100.00
6829;BME280;17930;48.592;8.868;2023-02-13T06:59:11;98699.09;;;-1.74;100.00
6829;BME280;17930;48.592;8.868;2023-02-13T07:01:38;98694.41;;;-1.78;100.00
6829;BME280;17930;48.592;8.868;2023-02-13T07:04:04;98692.91;;;-1.89;100.00
6829;BME280;17930;48.592;8.868;2023-02-13T07:06:31;98694.38;;;-1.86;100.00
6829;BME280;17930;48.592;8.868;2023-02-13T07:08:59;98704.38;;;-1.93;100.00
6829;BME280;17930;48.592;8.868;2023-02-13T07:11:26;98705.09;;;-1.83;100.00
6829;BME280;17930;48.592;8.868;2023-02-13T07:13:54;98707.84;;;-1.59;100.00
6829;BME280;17930;48.592;8.868;2023-02-13T07:16:21;98707.22;;;-1.61;100.00
6829;BME280;17930;48.592;8.868;2023-02-13T07:18:47;98706.38;;;-1.61;100.00
6829;BME280;17930;48.592;8.868;2023-02-13T07:21:14;98712.13;;;-1.85;100.00
6829;BME280;17930;48.592;8.868;2023-02-13T07:23:41;98712.63;;;-1.99;100.00
6829;BME280;17930;48.592;8.868;2023-02-13T07:26:07;98716.69;;;-2.05;100.00
6829;BME280;17930;48.592;8.868;2023-02-13T07:28:35;98717.72;;;-1.99;100.00
6829;BME280;17930;48.592;8.868;2023-02-13T07:31:04;98714.56;;;-1.75;100.00
6829;BME280;17930;48.592;8.868;2023-02-13T07:33:31;98719.16;;;-1.44;100.00
6829;BME280;17930;48.592;8.868;2023-02-13T07:35:58;98718.91;;;-1.33;100.00
6829;BME280;17930;48.592;8.868;2023-02-13T07:38:25;98719.63;;;-1.23;100.00
6829;BME280;17930;48.592;8.868;2023-02-13T07:40:52;98717.53;;;-1.02;100.00
6829;BME280;17930;48.592;8.868;2023-02-13T07:43:18;98719.44;;;-1.04;100.00
6829;BME280;17930;48.592;8.868;2023-02-13T07:45:45;98717.75;;;-1.21;100.00
6829;BME280;17930;48.592;8.868;2023-02-13T07:48:13;98712.25;;;-1.26;100.00
6829;BME280;17930;48.592;8.868;2023-02-13T07:50:40;98718.31;;;-1.27;100.00
6829;BME280;17930;48.592;8.868;2023-02-13T07:53:07;98723.44;;;-1.27;100.00
6829;BME280;17930;48.592;8.868;2023-02-13T07:55:35;98721.34;;;-1.06;100.00
6829;BME280;17930;48.592;8.868;2023-02-13T07:58:02;98713.13;;;-0.93;100.00
6829;BME280;17930;48.592;8.868;2023-02-13T08:00:29;98717.69;;;-0.71;100.00
6829;BME280;17930;48.592;8.868;2023-02-13T08:02:57;98718.06;;;-0.66;100.00
6829;BME280;17930;48.592;8.868;2023-02-13T08:05:26;98720.72;;;-0.75;100.00
6829;BME280;17930;48.592;8.868;2023-02-13T08:07:52;98721.13;;;-0.88;100.00
6829;BME280;17930;48.592;8.868;2023-02-13T08:10:19;98717.94;;;-0.90;100.00
6829;BME280;17930;48.592;8.868;2023-02-13T08:13:04;98719.50;;;-0.63;100.00
6829;BME280;17930;48.592;8.868;2023-02-13T08:15:32;98720.78;;;-0.59;100.00
6829;BME280;17930;48.592;8.868;2023-02-13T08:17:58;98724.13;;;-0.67;100.00
6829;BME280;17930;48.592;8.868;2023-02-13T08:20:27;98720.69;;;-0.50;100.00
6829;BME280;17930;48.592;8.868;2023-02-13T08:22:53;98725.53;;;-0.31;100.00
6829;BME280;17930;48.592;8.868;2023-02-13T08:25:27;98726.47;;;-0.40;100.00
6829;BME280;17930;48.592;8.868;2023-02-13T08:27:54;98715.00;;;-0.28;100.00
6829;BME280;17930;48.592;8.868;2023-02-13T08:30:21;98720.50;;;-0.15;100.00
6829;BME280;17930;48.592;8.868;2023-02-13T08:32:47;98715.72;;;-0.02;100.00
6829;BME280;17930;48.592;8.868;2023-02-13T08:35:14;98719.84;;;-0.02;100.00
6829;BME280;17930;48.592;8.868;2023-02-13T08:37:42;98717.81;;;0.18;100.00
6829;BME280;17930;48.592;8.868;2023-02-13T08:40:10;98717.69;;;0.27;100.00
6829;BME280;17930;48.592;8.868;2023-02-13T08:42:37;98713.03;;;0.31;100.00
6829;BME280;17930;48.592;8.868;2023-02-13T08:45:04;98712.72;;;0.42;100.00
6829;BME280;17930;48.592;8.868;2023-02-13T08:47:31;98716.72;;;0.44;100.00
6829;BME280;17930;48.592;8.868;2023-02-13T08:49:58;98701.66;;;0.41;100.00
6829;BME280;17930;48.592;8.868;2023-02-13T08:52:24;98707.88;;;0.47;100.00
6829;BME280;17930;48.592;8.868;2023-02-13T08:54:52;98708.38;;;0.42;100.00
6829;BME280;17930;48.592;8.868;2023-02-13T08:57:19;98707.09;;;0.46;100.00
6829;BME280;17930;48.592;8.868;2023-02-13T08:59:45;98704.22;;;0.49;100.00
6829;BME280;17930;48.592;8.868;2023-02-13T09:02:12;98705.97;;;0.64;100.00
6829;BME280;17930;48.592;8.868;2023-02-13T09:04:40;98705.00;;;0.73;100.00
6829;BME280;17930;48.592;8.868;2023-02-13T09:07:06;98705.31;;;0.70;100.00
6829;BME280;17930;48.592;8.868;2023-02-13T09:09:33;98702.91;;;0.85;100.00
6829;BME280;17930;48.592;8.868;2023-02-13T09:12:01;98693.91;;;0.89;100.00
6829;BME280;17930;48.592;8.868;2023-02-13T09:14:28;98697.25;;;0.97;100.00
6829;BME280;17930;48.592;8.868;2023-02-13T09:16:55;98694.34;;;1.08;100.00
6829;BME280;17930;48.592;8.868;2023-02-13T09:19:22;98691.28;;;1.12;100.00
6829;BME280;17930;48.592;8.868;2023-02-13T09:21:49;98685.31;;;1.28;100.00
6829;BME280;17930;48.592;8.868;2023-02-13T09:24:16;98684.97;;;1.31;100.00
6829;BME280;17930;48.592;8.868;2023-02-13T09:26:42;98680.53;;;1.55;100.00
6829;BME280;17930;48.592;8.868;2023-02-13T09:29:10;98685.56;;;1.79;100.00
6829;BME280;17930;48.592;8.868;2023-02-13T09:31:37;98689.75;;;1.80;100.00
6829;BME280;17930;48.592;8.868;2023-02-13T09:34:04;98686.41;;;1.71;100.00
6829;BME280;17930;48.592;8.868;2023-02-13T09:36:31;98689.25;;;1.76;100.00
6829;BME280;17930;48.592;8.868;2023-02-13T09:38:58;98691.19;;;1.82;100.00
6829;BME280;17930;48.592;8.868;2023-02-13T09:41:27;98687.44;;;1.85;100.00
6829;BME280;17930;48.592;8.868;2023-02-13T09:43:57;98684.06;;;1.92;100.00
6829;BME280;17930;48.592;8.868;2023-02-13T09:46:30;98685.88;;;2.06;100.00
6829;BME280;17930;48.592;8.868;2023-02-13T09:49:01;98685.97;;;2.20;100.00
6829;BME280;17930;48.592;8.868;2023-02-13T09:51:31;98682.09;;;2.39;100.00
6829;BME280;17930;48.592;8.868;2023-02-13T09:54:00;98689.19;;;2.37;100.00
6829;BME280;17930;48.592;8.868;2023-02-13T09:56:38;98684.09;;;2.51;100.00
6829;BME280;17930;48.592;8.868;2023-02-13T09:59:16;98689.03;;;2.38;100.00
6829;BME280;17930;48.592;8.868;2023-02-13T10:01:49;98683.06;;;2.60;100.00
6829;BME280;17930;48.592;8.868;2023-02-13T10:04:30;98688.25;;;2.74;100.00
6829;BME280;17930;48.592;8.868;2023-02-13T10:07:09;98686.69;;;3.16;100.00
6829;BME280;17930;48.592;8.868;2023-02-13T10:09:44;98689.00;;;3.11;100.00
6829;BME280;17930;48.592;8.868;2023-02-13T10:12:29;98689.34;;;3.37;100.00
6829;BME280;17930;48.592;8.868;2023-02-13T10:15:11;98690.06;;;3.31;100.00
6829;BME280;17930;48.592;8.868;2023-02-13T10:17:44;98693.34;;;3.25;100.00
6829;BME280;17930;48.592;8.868;2023-02-13T10:20:25;98686.28;;;3.77;100.00
6829;BME280;17930;48.592;8.868;2023-02-13T10:22:55;98675.84;;;3.85;100.00
6829;BME280;17930;48.592;8.868;2023-02-13T10:25:27;98677.28;;;3.87;100.00
6829;BME280;17930;48.592;8.868;2023-02-13T10:27:59;98670.72;;;4.06;100.00
6829;BME280;17930;48.592;8.868;2023-02-13T10:30:32;98680.59;;;3.67;100.00
6829;BME280;17930;48.592;8.868;2023-02-13T10:33:08;98673.63;;;3.82;100.00
6829;BME280;17930;48.592;8.868;2023-02-13T10:35:50;98678.97;;;3.80;100.00
6829;BME280;17930;48.592;8.868;2023-02-13T10:38:20;98678.50;;;3.56;100.00
6829;BME280;17930;48.592;8.868;2023-02-13T10:41:03;98677.13;;;3.60;100.00
6829;BME280;17930;48.592;8.868;2023-02-13T10:43:37;98684.84;;;3.89;100.00
6829;BME280;17930;48.592;8.868;2023-02-13T10:46:12;98675.38;;;3.96;100.00
6829;BME280;17930;48.592;8.868;2023-02-13T10:49:06;98679.56;;;4.17;100.00
6829;BME280;17930;48.592;8.868;2023-02-13T10:51:40;98679.97;;;4.35;100.00
6829;BME280;17930;48.592;8.868;2023-02-13T10:54:35;98680.63;;;4.44;100.00
6829;BME280;17930;48.592;8.868;2023-02-13T10:57:12;98680.53;;;4.31;100.00
6829;BME280;17930;48.592;8.868;2023-02-13T10:59:55;98677.88;;;4.45;100.00
6829;BME280;17930;48.592;8.868;2023-02-13T11:02:26;98676.31;;;4.51;100.00
6829;BME280;17930;48.592;8.868;2023-02-13T11:04:59;98676.06;;;4.66;100.00
6829;BME280;17930;48.592;8.868;2023-02-13T11:07:27;98676.88;;;4.25;100.00
6829;BME280;17930;48.592;8.868;2023-02-13T11:10:00;98673.94;;;4.28;100.00
6829;BME280;17930;48.592;8.868;2023-02-13T11:12:30;98669.63;;;4.14;100.00
6829;BME280;17930;48.592;8.868;2023-02-13T11:14:59;98671.31;;;4.49;100.00
6829;BME280;17930;48.592;8.868;2023-02-13T11:17:28;98664.00;;;4.53;100.00
6829;BME280;17930;48.592;8.868;2023-02-13T11:19:59;98665.53;;;4.95;100.00
6829;BME280;17930;48.592;8.868;2023-02-13T11:22:29;98667.06;;;4.90;100.00
6829;BME280;17930;48.592;8.868;2023-02-13T11:25:00;98660.78;;;4.99;100.00
6829;BME280;17930;48.592;8.868;2023-02-13T11:27:31;98658.81;;;5.01;100.00
6829;BME280;17930;48.592;8.868;2023-02-13T11:30:00;98661.88;;;4.83;100.00
6829;BME280;17930;48.592;8.868;2023-02-13T11:32:29;98659.19;;;4.98;100.00
6829;BME280;17930;48.592;8.868;2023-02-13T11:35:15;98652.59;;;5.29;100.00
6829;BME280;17930;48.592;8.868;2023-02-13T11:37:42;98651.53;;;5.57;100.00
6829;BME280;17930;48.592;8.868;2023-02-13T11:40:28;98647.19;;;5.70;100.00
6829;BME280;17930;48.592;8.868;2023-02-13T11:42:55;98656.59;;;5.31;100.00
6829;BME280;17930;48.592;8.868;2023-02-13T11:45:23;98655.66;;;5.05;100.00
6829;BME280;17930;48.592;8.868;2023-02-13T11:47:51;98649.75;;;5.17;100.00
6829;BME280;17930;48.592;8.868;2023-02-13T11:50:23;98652.25;;;5.38;100.00
6829;BME280;17930;48.592;8.868;2023-02-13T11:52:56;98647.59;;;5.67;100.00
6829;BME280;17930;48.592;8.868;2023-02-13T11:55:27;98652.72;;;5.95;100.00
6829;BME280;17930;48.592;8.868;2023-02-13T11:57:58;98642.16;;;5.96;100.00
6829;BME280;17930;48.592;8.868;2023-02-13T12:00:30;98643.19;;;6.14;100.00
6829;BME280;17930;48.592;8.868;2023-02-13T12:03:02;98648.59;;;6.26;100.00
6829;BME280;17930;48.592;8.868;2023-02-13T12:06:01;98640.00;;;6.58;100.00
6829;BME280;17930;48.592;8.868;2023-02-13T12:08:28;98639.81;;;6.46;100.00
6829;BME280;17930;48.592;8.868;2023-02-13T12:10:57;98637.03;;;6.48;100.00
6829;BME280;17930;48.592;8.868;2023-02-13T12:13:27;98631.81;;;6.86;100.00
6829;BME280;17930;48.592;8.868;2023-02-13T12:15:59;98628.13;;;7.32;100.00
6829;BME280;17930;48.592;8.868;2023-02-13T12:18:31;98643.31;;;7.22;100.00
6829;BME280;17930;48.592;8.868;2023-02-13T12:21:04;98646.59;;;6.92;100.00
6829;BME280;17930;48.592;8.868;2023-02-13T12:23:41;98640.41;;;6.87;100.00
6829;BME280;17930;48.592;8.868;2023-02-13T12:26:21;98646.19;;;6.76;100.00
6829;BME280;17930;48.592;8.868;2023-02-13T12:34:53;98624.38;;;9.77;100.00
6829;BME280;17930;48.592;8.868;2023-02-13T12:37:45;98626.44;;;11.36;100.00
6829;BME280;17930;48.592;8.868;2023-02-13T12:40:29;98624.69;;;12.64;100.00
6829;BME280;17930;48.592;8.868;2023-02-13T12:43:14;98632.22;;;12.77;100.00
6829;BME280;17930;48.592;8.868;2023-02-13T12:45:51;98623.78;;;12.75;100.00
6829;BME280;17930;48.592;8.868;2023-02-13T12:48:30;98614.59;;;12.89;100.00
6829;BME280;17930;48.592;8.868;2023-02-13T12:51:19;98602.50;;;13.63;100.00
6829;BME280;17930;48.592;8.868;2023-02-13T12:54:01;98601.84;;;13.99;100.00
6829;BME280;17930;48.592;8.868;2023-02-13T12:56:43;98599.34;;;14.66;100.00
6829;BME280;17930;48.592;8.868;2023-02-13T12:59:22;98592.44;;;14.29;100.00
6829;BME280;17930;48.592;8.868;2023-02-13T13:02:22;98591.47;;;14.09;100.00
6829;BME280;17930;48.592;8.868;2023-02-13T13:05:04;98594.09;;;14.66;100.00
6829;BME280;17930;48.592;8.868;2023-02-13T13:07:54;98582.72;;;15.48;100.00
6829;BME280;17930;48.592;8.868;2023-02-13T13:10:49;98585.34;;;14.97;100.00
6829;BME280;17930;48.592;8.868;2023-02-13T13:13:33;98582.50;;;15.08;100.00
6829;BME280;17930;48.592;8.868;2023-02-13T13:16:05;98583.50;;;15.38;100.00
6829;BME280;17930;48.592;8.868;2023-02-13T13:18:41;98572.19;;;16.34;100.00
6829;BME280;17930;48.592;8.868;2023-02-13T13:21:18;98574.50;;;16.15;95.24
6829;BME280;17930;48.592;8.868;2023-02-13T13:23:52;98571.53;;;15.77;95.30
6829;BME280;17930;48.592;8.868;2023-02-13T13:26:26;98573.69;;;16.10;97.13
6829;BME280;17930;48.592;8.868;2023-02-13T13:28:58;98576.34;;;16.10;93.31
6829;BME280;17930;48.592;8.868;2023-02-13T13:31:27;98568.25;;;16.36;94.59
6829;BME280;17930;48.592;8.868;2023-02-13T13:33:59;98572.44;;;15.37;96.34
6829;BME280;17930;48.592;8.868;2023-02-13T13:36:35;98577.44;;;16.43;99.54
6829;BME280;17930;48.592;8.868;2023-02-13T13:39:08;98563.00;;;17.53;88.63
6829;BME280;17930;48.592;8.868;2023-02-13T13:41:44;98564.81;;;16.75;82.36
6829;BME280;17930;48.592;8.868;2023-02-13T13:44:32;98562.44;;;16.44;87.62